Archival Weather

Chicago O'Hare International

Chicago, Illinois (KORD)

Report from: Tuesday, February 27, 2024 6:51 PM CST
Current time: Wednesday, May 29, 2024 8:14 PM CDT

Current weather – Weather history – Daily summaries
Weather forecast

Temperature19.4°C (66.9°F)
Dew point15.0°C (59.0°F)
Winds 9 kts (4.6 m/s, 10.4 mph) East-Southeast (110°)
Visibility10 mi. (16.1 km)
Clouds Scattered clouds 3,000 ft. (914 m)
Ceiling: Broken clouds 6,500 ft. (1,981 m)
Broken clouds 11,000 ft. (3,353 m)
Overcast 25,000 ft. (7,620 m)
Altimeter29.24 in.Hg (990 mB)
PrecipitiationTrace
Precip. events Rain began 12:00 AM
Rain ended 12:20 AM
Relative humidity76 %
Density altitude1,543 ft. (470 m)
Sea-level pressure99.0 kPa (990 mB, 29.23 in.Hg)
Remarks System requires maintenance
Automated weather observing station with precipitation discriminator
Lightning observed
Lightning observed: cloud to ground, intra cloud
Distant southwest northwest occasional distant west northwest cumulonimbus clouds observed distant west northwest moving east
Flight conditions Visual Meteorological Conditions
Raw dataKORD 280051Z 11009KT 10SM SCT030 BKN065 BKN110 OVC250 19/15 A2924 RMK AO2 LTG DSNT SW-NW RAB00E20 SLP900 OCNL LTGCGIC DSNT W-NW CB DSNT W-NW MOV E P0000 T01940150 $
An error has occurred. This application may no longer respond until reloaded. Reload 🗙